Weather at Dirección General de Tráfico Heliport

Public forecast

Using degrees Celsius for public forecast. Weather courtesy of forecast.io.

Closest aviation weather report (METAR) to Dirección General de Tráfico Heliport

Closest report is Adolfo Suárez Madrid–Barajas Airport, 4.0 nm (7.5 km) ENE. Retrieved 2021/04/14 01:30 UTC (13 minutes ago):

LEMD 140130Z 34003KT 9999 FEW042 SCT070 10/08 Q1019 NOSIG

Closest aviation forecast (TAF) to Dirección General de Tráfico Heliport

Closest forecast is Adolfo Suárez Madrid–Barajas Airport, 4.0 nm (7.5 km) ENE. Retrieved 2021-04-14 00:27 UTC (1 hour ago):

TAF LEMD 132300Z 1400/1506 02006KT 9999 SCT040 BKN055 TX20/1415Z TN08/1406Z BECMG 1406/1407 09008KT BECMG 1412/1413 14008KT PROB30 TEMPO 1413/1418 FEW025TCU BECMG 1419/1420 07007KT